createdAt,value
2019-02-15T00:02:27.345Z,4.90
2019-02-15T00:05:00.739Z,4.89
2019-02-15T00:07:35.281Z,4.89
2019-02-15T00:10:08.646Z,4.87
2019-02-15T00:12:42.129Z,4.83
2019-02-15T00:15:15.653Z,4.79
2019-02-15T00:18:10.650Z,4.77
2019-02-15T00:21:05.524Z,4.80
2019-02-15T00:23:39.904Z,4.90
2019-02-15T00:26:13.138Z,4.90
2019-02-15T00:28:46.734Z,4.90
2019-02-15T00:31:22.288Z,4.90
2019-02-15T00:33:55.700Z,4.85
2019-02-15T00:36:29.290Z,4.85
2019-02-15T00:39:02.748Z,4.83
2019-02-15T00:41:37.286Z,4.83
2019-02-15T00:47:08.468Z,4.86
2019-02-15T00:49:54.136Z,4.81
2019-02-15T00:52:46.368Z,4.85
2019-02-15T00:55:38.388Z,4.85
2019-02-15T00:58:33.464Z,4.80
2019-02-15T01:01:31.478Z,4.89
2019-02-15T01:04:13.704Z,4.98
2019-02-15T01:06:55.293Z,5.13
2019-02-15T01:09:45.085Z,5.11
2019-02-15T01:12:20.882Z,5.11
2019-02-15T01:14:54.328Z,5.01
2019-02-15T01:17:27.656Z,5.01
2019-02-15T01:20:01.134Z,4.97
2019-02-15T01:22:34.497Z,4.97
2019-02-15T01:25:08.339Z,4.84
2019-02-15T01:28:06.538Z,4.80
2019-02-15T01:31:07.740Z,4.80
2019-02-15T01:34:04.109Z,4.88
2019-02-15T01:36:56.111Z,4.87
2019-02-15T01:39:44.775Z,4.75
2019-02-15T01:42:34.140Z,4.69
2019-02-15T01:45:32.434Z,4.68
2019-02-15T01:48:05.729Z,4.66
2019-02-15T01:50:39.091Z,4.62
2019-02-15T01:53:12.515Z,4.56
2019-02-15T01:55:46.158Z,4.62
2019-02-15T01:58:19.674Z,4.68
2019-02-15T02:00:53.257Z,4.75
2019-02-15T02:03:26.764Z,4.79
2019-02-15T02:06:00.286Z,4.79
2019-02-15T02:08:34.290Z,4.84
2019-02-15T02:11:07.658Z,4.72
2019-02-15T02:13:49.274Z,4.72
2019-02-15T02:16:15.089Z,4.65
2019-02-15T02:18:46.703Z,4.52
2019-02-15T02:21:19.958Z,4.43
2019-02-15T02:23:51.868Z,4.29
2019-02-15T02:26:25.111Z,4.21
2019-02-15T02:28:58.340Z,4.21
2019-02-15T02:31:31.670Z,4.12
2019-02-15T02:34:05.146Z,4.12
2019-02-15T02:36:54.931Z,4.14
2019-02-15T02:39:27.294Z,4.15
2019-02-15T02:41:59.346Z,4.11
2019-02-15T02:44:32.702Z,4.09
2019-02-15T02:47:06.107Z,4.09
2019-02-15T02:49:39.363Z,4.10
2019-02-15T02:52:12.681Z,4.06
2019-02-15T02:54:46.124Z,4.06
2019-02-15T02:57:20.391Z,4.01
2019-02-15T02:59:53.966Z,4.01
2019-02-15T03:02:26.024Z,3.96
2019-02-15T03:04:59.294Z,3.89
2019-02-15T03:07:32.641Z,3.88
2019-02-15T03:10:06.286Z,3.84
2019-02-15T03:12:39.701Z,3.73
2019-02-15T03:15:13.307Z,3.73
2019-02-15T03:17:46.722Z,3.68
2019-02-15T03:20:30.413Z,3.67
2019-02-15T03:22:53.850Z,3.67
2019-02-15T03:25:27.273Z,3.85
2019-02-15T03:28:00.763Z,3.93
2019-02-15T03:30:34.173Z,3.93
2019-02-15T03:33:08.666Z,3.91
2019-02-15T03:35:54.615Z,3.93
2019-02-15T03:38:50.916Z,4.00
2019-02-15T03:41:29.295Z,4.04
2019-02-15T03:44:02.643Z,3.99
2019-02-15T03:46:36.951Z,3.99
2019-02-15T03:49:10.646Z,3.99
2019-02-15T03:51:44.212Z,4.03
2019-02-15T03:54:17.603Z,3.95
2019-02-15T03:56:51.289Z,3.90
2019-02-15T03:59:24.745Z,3.86
2019-02-15T04:01:58.338Z,3.78
2019-02-15T04:04:31.677Z,3.69
2019-02-15T04:07:05.118Z,3.69
2019-02-15T04:09:38.285Z,3.70
2019-02-15T04:12:11.947Z,3.63
2019-02-15T04:14:45.323Z,3.63
2019-02-15T04:17:18.689Z,3.59
2019-02-15T04:19:52.129Z,3.59
2019-02-15T04:22:25.280Z,3.57
2019-02-15T04:24:58.793Z,3.57
2019-02-15T04:27:32.292Z,3.57
2019-02-15T04:30:05.927Z,3.59
2019-02-15T04:32:39.328Z,3.59
2019-02-15T04:35:12.972Z,3.60
2019-02-15T04:37:45.286Z,3.60
2019-02-15T04:40:18.310Z,3.59
2019-02-15T04:42:51.886Z,3.48
2019-02-15T04:45:25.284Z,3.48
2019-02-15T04:47:58.890Z,3.43
2019-02-15T04:50:32.299Z,3.43
2019-02-15T04:53:05.673Z,3.41
2019-02-15T04:55:39.170Z,3.41
2019-02-15T04:58:12.301Z,3.42
2019-02-15T05:00:45.677Z,3.37
2019-02-15T05:03:19.688Z,3.37
2019-02-15T05:05:53.324Z,3.33
2019-02-15T05:08:26.790Z,3.32
2019-02-15T05:11:02.288Z,3.31
2019-02-15T05:13:35.706Z,3.23
2019-02-15T05:16:09.282Z,3.23
2019-02-15T05:18:42.647Z,3.26
2019-02-15T05:21:16.125Z,3.26
2019-02-15T05:23:49.642Z,3.23
2019-02-15T05:26:23.116Z,3.23
2019-02-15T05:28:56.676Z,3.19
2019-02-15T05:31:30.303Z,3.17
2019-02-15T05:34:03.723Z,3.11
2019-02-15T05:36:37.258Z,3.11
2019-02-15T05:39:11.723Z,3.08
2019-02-15T05:41:45.125Z,3.08
2019-02-15T05:44:18.745Z,3.13
2019-02-15T05:46:52.143Z,3.13
2019-02-15T05:49:25.662Z,3.19
2019-02-15T05:51:59.376Z,3.19
2019-02-15T05:54:32.715Z,3.18
2019-02-15T05:57:06.292Z,3.16
2019-02-15T05:59:39.723Z,3.15
2019-02-15T06:02:13.280Z,3.14
2019-02-15T06:04:46.636Z,3.06
2019-02-15T06:07:20.283Z,3.06
2019-02-15T06:09:54.663Z,3.01
2019-02-15T06:12:28.069Z,3.01
2019-02-15T06:15:00.168Z,2.98
2019-02-15T06:17:34.911Z,2.96
2019-02-15T06:20:07.696Z,2.91
2019-02-15T06:22:40.949Z,2.86
2019-02-15T06:25:12.824Z,2.83
2019-02-15T06:27:45.935Z,2.84
2019-02-15T06:30:19.141Z,2.87
2019-02-15T06:32:54.627Z,2.88
2019-02-15T06:35:33.017Z,2.88
2019-02-15T06:38:06.253Z,2.89
2019-02-15T06:40:39.330Z,3.00
2019-02-15T06:43:12.651Z,3.04
2019-02-15T06:45:46.278Z,3.04
2019-02-15T06:48:19.757Z,3.14
2019-02-15T06:50:52.919Z,3.14
2019-02-15T06:53:26.337Z,3.18
2019-02-15T06:55:59.943Z,3.31
2019-02-15T06:58:33.283Z,3.31
2019-02-15T07:01:23.943Z,3.50
2019-02-15T07:04:19.282Z,3.50
2019-02-15T07:06:52.685Z,3.70
2019-02-15T07:09:25.948Z,3.70
2019-02-15T07:11:59.285Z,3.87
2019-02-15T07:14:32.801Z,4.09
2019-02-15T07:17:06.279Z,4.09
2019-02-15T07:19:39.670Z,4.43
2019-02-15T07:22:13.282Z,4.43
2019-02-15T07:24:47.310Z,4.92
2019-02-15T07:27:20.932Z,4.92
2019-02-15T07:29:54.312Z,5.24
2019-02-15T07:32:27.773Z,5.51
2019-02-15T07:35:01.248Z,5.85
2019-02-15T07:37:34.761Z,6.24
2019-02-15T07:40:08.704Z,6.24
2019-02-15T07:42:41.936Z,6.49
2019-02-15T07:45:17.349Z,7.13
2019-02-15T07:47:50.678Z,7.52
2019-02-15T07:50:23.936Z,7.52
2019-02-15T07:52:57.641Z,7.75
2019-02-15T07:55:31.169Z,8.51
2019-02-15T07:58:04.591Z,9.72
2019-02-15T08:00:38.377Z,10.17
2019-02-15T08:03:12.166Z,11.41
2019-02-15T08:05:45.621Z,11.24
2019-02-15T08:08:19.882Z,11.55
2019-02-15T08:10:53.279Z,12.43
2019-02-15T08:13:26.636Z,12.36
2019-02-15T08:15:59.947Z,12.36
2019-02-15T08:18:33.137Z,12.66
2019-02-15T08:21:06.638Z,13.17
2019-02-15T08:23:40.270Z,13.42
2019-02-15T08:26:13.697Z,13.82
2019-02-15T08:28:46.946Z,13.82
2019-02-15T08:31:20.319Z,14.65
2019-02-15T08:33:53.783Z,16.14
2019-02-15T08:36:27.280Z,16.14
2019-02-15T08:39:00.752Z,17.27
2019-02-15T08:41:36.246Z,17.27
2019-02-15T08:44:10.302Z,18.86
2019-02-15T08:46:43.749Z,19.43
2019-02-15T08:49:17.293Z,19.43
2019-02-15T08:51:50.694Z,20.85
2019-02-15T08:54:24.118Z,20.85
2019-02-15T08:56:58.624Z,20.93
2019-02-15T08:59:32.939Z,22.05
2019-02-15T09:02:14.282Z,22.05
2019-02-15T09:04:47.696Z,21.76
2019-02-15T09:07:21.277Z,21.76
2019-02-15T09:09:54.632Z,21.04
2019-02-15T09:12:28.316Z,21.04
2019-02-15T09:15:01.775Z,19.46
2019-02-15T09:17:35.347Z,19.59
2019-02-15T09:20:10.657Z,21.06
2019-02-15T09:22:44.337Z,21.88
2019-02-15T09:25:17.865Z,21.88
2019-02-15T09:28:16.072Z,21.82
2019-02-15T09:30:53.278Z,21.39
2019-02-15T09:33:26.716Z,21.75
2019-02-15T09:36:00.271Z,21.75
2019-02-15T09:38:33.698Z,21.21
2019-02-15T09:41:07.271Z,21.21
2019-02-15T09:43:40.625Z,21.42
2019-02-15T09:46:19.910Z,21.42
2019-02-15T09:48:49.273Z,20.94
2019-02-15T09:51:22.859Z,20.86
2019-02-15T09:53:56.278Z,21.00
2019-02-15T09:56:29.706Z,20.78
2019-02-15T09:59:03.306Z,20.78
2019-02-15T10:01:36.728Z,20.78
2019-02-15T10:04:11.379Z,20.68
2019-02-15T10:06:45.080Z,20.47
2019-02-15T10:09:18.601Z,20.55
2019-02-15T10:11:52.271Z,20.72
2019-02-15T10:14:25.892Z,20.78
2019-02-15T10:16:58.258Z,20.78
2019-02-15T10:19:31.322Z,20.48
2019-02-15T10:22:04.669Z,20.27
2019-02-15T10:24:38.269Z,20.27
2019-02-15T10:27:11.699Z,20.38
2019-02-15T10:29:45.284Z,20.38
2019-02-15T10:32:19.719Z,20.53
2019-02-15T10:34:53.260Z,20.53
2019-02-15T10:37:26.889Z,20.79
2019-02-15T10:40:00.327Z,21.12
2019-02-15T10:42:33.868Z,21.40
2019-02-15T10:45:06.596Z,21.40
2019-02-15T10:47:39.932Z,21.41
2019-02-15T10:50:12.035Z,21.54
2019-02-15T10:52:43.706Z,21.53
2019-02-15T10:55:18.267Z,21.42
2019-02-15T10:57:51.737Z,21.40
2019-02-15T11:00:25.127Z,21.57
2019-02-15T11:02:58.621Z,22.10
2019-02-15T11:05:32.279Z,22.10
2019-02-15T11:08:05.610Z,22.58
2019-02-15T11:10:39.346Z,22.58
2019-02-15T11:13:12.872Z,23.26
2019-02-15T11:15:46.274Z,23.66
2019-02-15T11:18:19.628Z,24.64
2019-02-15T11:20:53.267Z,24.64
2019-02-15T11:23:26.732Z,26.16
2019-02-15T11:26:00.290Z,26.16
2019-02-15T11:28:33.723Z,27.87
2019-02-15T11:31:07.295Z,27.87
2019-02-15T11:33:40.872Z,28.44
2019-02-15T11:36:14.036Z,29.13
2019-02-15T11:38:47.627Z,30.07
2019-02-15T11:41:21.265Z,30.57
2019-02-15T11:43:54.758Z,31.12
2019-02-15T11:46:28.336Z,31.12
2019-02-15T11:49:01.927Z,31.78
2019-02-15T11:51:35.318Z,31.78
2019-02-15T11:54:08.734Z,32.85
2019-02-15T11:56:42.273Z,32.85
2019-02-15T11:59:15.714Z,33.74
2019-02-15T12:01:49.122Z,33.74
2019-02-15T12:04:22.739Z,34.33
2019-02-15T12:06:56.261Z,34.82
2019-02-15T12:09:30.127Z,35.17
2019-02-15T12:12:10.454Z,35.17
2019-02-15T12:14:38.714Z,35.40
2019-02-15T12:17:12.275Z,35.40
2019-02-15T12:19:45.652Z,35.71
2019-02-15T12:22:19.276Z,35.71
2019-02-15T12:24:52.930Z,36.48
2019-02-15T12:27:26.271Z,36.48
2019-02-15T12:29:59.774Z,37.60
2019-02-15T12:32:33.265Z,37.60
2019-02-15T12:35:06.891Z,37.73
2019-02-15T12:37:40.318Z,37.73
2019-02-15T12:40:14.332Z,38.80
2019-02-15T12:42:47.701Z,39.04
2019-02-15T12:45:21.293Z,39.04
2019-02-15T12:47:55.149Z,38.80
2019-02-15T12:50:28.618Z,38.80
2019-02-15T12:53:02.091Z,39.45
2019-02-15T12:55:36.570Z,39.58
2019-02-15T13:00:54.441Z,39.43
2019-02-15T13:03:27.802Z,39.28
2019-02-15T13:06:01.023Z,39.43
2019-02-15T13:08:32.864Z,39.60
2019-02-15T13:11:06.321Z,39.99
2019-02-15T13:13:39.688Z,40.43
2019-02-15T13:16:13.512Z,40.71
2019-02-15T13:18:47.258Z,40.43
2019-02-15T13:21:20.729Z,40.76
2019-02-15T13:23:54.275Z,40.76
2019-02-15T13:26:27.781Z,40.01
2019-02-15T13:28:59.842Z,40.01
2019-02-15T13:31:33.314Z,38.82
2019-02-15T13:34:06.701Z,37.67
2019-02-15T13:36:39.975Z,36.02
2019-02-15T13:39:13.322Z,34.26
2019-02-15T13:41:46.698Z,31.97
2019-02-15T13:44:20.277Z,31.97
2019-02-15T13:46:54.677Z,32.24
2019-02-15T13:49:29.282Z,32.24
2019-02-15T13:52:02.647Z,34.37
2019-02-15T13:54:36.071Z,34.37
2019-02-15T13:57:09.279Z,35.02
2019-02-15T13:59:42.783Z,35.38
2019-02-15T14:02:16.293Z,35.38
2019-02-15T14:04:49.882Z,35.17
2019-02-15T14:07:23.725Z,35.41
2019-02-15T14:09:57.277Z,35.05
2019-02-15T14:12:31.708Z,34.31
2019-02-15T14:15:05.650Z,34.31
2019-02-15T14:17:45.267Z,33.54
2019-02-15T14:20:14.277Z,32.73
2019-02-15T14:22:47.859Z,31.08
2019-02-15T14:25:21.276Z,31.08
2019-02-15T14:27:54.704Z,29.83
2019-02-15T14:30:28.205Z,29.83
2019-02-15T14:33:02.282Z,29.07
2019-02-15T14:35:36.941Z,27.66
2019-02-15T14:38:12.882Z,27.66
2019-02-15T14:42:27.751Z,27.29
2019-02-15T14:45:01.111Z,26.75
2019-02-15T14:47:34.697Z,26.04
2019-02-15T14:50:08.697Z,26.04
2019-02-15T14:52:42.143Z,25.18
2019-02-15T14:55:15.317Z,25.18
2019-02-15T14:57:48.692Z,24.97
2019-02-15T15:00:22.110Z,24.81
2019-02-15T15:02:55.335Z,24.61
2019-02-15T15:05:28.664Z,24.19
2019-02-15T15:08:02.273Z,24.19
2019-02-15T15:10:35.670Z,24.34
2019-02-15T15:13:09.340Z,24.34
2019-02-15T15:15:43.124Z,24.37
2019-02-15T15:18:16.666Z,24.37
2019-02-15T15:20:50.298Z,23.95
2019-02-15T15:23:23.949Z,23.42
2019-02-15T15:25:55.876Z,22.74
2019-02-15T15:28:29.280Z,21.87
2019-02-15T15:31:02.886Z,20.57
2019-02-15T15:33:35.804Z,20.57
2019-02-15T15:36:09.289Z,20.15
2019-02-15T15:38:42.657Z,19.42
2019-02-15T15:41:16.278Z,19.42
2019-02-15T15:43:49.719Z,18.74
2019-02-15T15:46:24.300Z,18.74
2019-02-15T15:48:58.133Z,18.00
2019-02-15T15:51:31.669Z,18.00
2019-02-15T15:54:06.364Z,17.67
2019-02-15T15:56:39.707Z,17.55
2019-02-15T15:59:13.125Z,17.38
2019-02-15T16:01:46.704Z,17.19
2019-02-15T16:04:20.264Z,17.04
2019-02-15T16:06:53.694Z,16.75
2019-02-15T16:09:27.253Z,16.75
2019-02-15T16:12:00.772Z,16.46
2019-02-15T16:14:36.303Z,16.46
2019-02-15T16:17:09.701Z,16.21
2019-02-15T16:19:49.199Z,16.21
2019-02-15T16:22:19.268Z,16.03
2019-02-15T16:24:53.947Z,15.48
2019-02-15T16:27:26.031Z,15.48
2019-02-15T16:29:58.904Z,15.23
2019-02-15T16:32:33.271Z,15.00
2019-02-15T16:35:07.189Z,14.69
2019-02-15T16:37:40.655Z,14.69
2019-02-15T16:40:15.072Z,14.58
2019-02-15T16:42:48.274Z,14.33
2019-02-15T16:45:23.435Z,13.79
2019-02-15T16:47:56.782Z,13.56
2019-02-15T16:52:14.787Z,13.42
2019-02-15T16:54:48.280Z,13.42
2019-02-15T16:57:22.786Z,13.28
2019-02-15T16:59:56.287Z,13.28
2019-02-15T17:02:29.653Z,13.11
2019-02-15T17:05:04.255Z,13.11
2019-02-15T17:07:38.109Z,12.85
2019-02-15T17:10:12.309Z,12.62
2019-02-15T17:12:45.942Z,12.62
2019-02-15T17:16:47.945Z,12.42
2019-02-15T17:19:21.453Z,12.12
2019-02-15T17:21:55.263Z,12.12
2019-02-15T17:24:28.943Z,11.97
2019-02-15T17:27:01.282Z,11.97
2019-02-15T17:29:34.743Z,11.86
2019-02-15T17:32:08.274Z,11.86
2019-02-15T17:34:44.900Z,11.67
2019-02-15T17:37:18.527Z,11.63
2019-02-15T17:39:52.276Z,11.45
2019-02-15T17:42:26.136Z,11.38
2019-02-15T17:44:59.665Z,11.13
2019-02-15T17:47:33.424Z,11.13
2019-02-15T17:50:07.437Z,11.04
2019-02-15T17:52:40.946Z,11.08
2019-02-15T17:55:13.303Z,10.94
2019-02-15T17:57:46.763Z,10.80
2019-02-15T18:00:22.575Z,10.80
2019-02-15T18:02:55.981Z,10.81
2019-02-15T18:05:28.618Z,10.77
2019-02-15T18:08:02.276Z,10.74
2019-02-15T18:10:35.649Z,10.68
2019-02-15T18:13:09.144Z,10.68
2019-02-15T18:15:42.933Z,10.62
2019-02-15T18:18:15.138Z,10.62
2019-02-15T18:20:48.355Z,10.60
2019-02-15T18:23:21.894Z,10.56
2019-02-15T18:25:55.283Z,10.52
2019-02-15T18:28:28.732Z,10.46
2019-02-15T18:31:02.315Z,10.46
2019-02-15T18:33:35.939Z,10.24
2019-02-15T18:36:07.858Z,10.24
2019-02-15T18:38:41.264Z,10.21
2019-02-15T18:41:14.764Z,10.13
2019-02-15T18:43:48.287Z,10.13
2019-02-15T18:49:05.867Z,10.07
2019-02-15T18:51:39.398Z,10.07
2019-02-15T18:54:13.695Z,10.04
2019-02-15T18:56:47.265Z,9.95
2019-02-15T18:59:20.771Z,9.76
2019-02-15T19:01:54.284Z,9.76
2019-02-15T19:04:27.693Z,9.67
2019-02-15T19:07:05.646Z,9.67
2019-02-15T19:09:39.073Z,9.66
2019-02-15T19:12:13.155Z,9.68
2019-02-15T19:14:46.717Z,9.59
2019-02-15T19:17:19.939Z,9.59
2019-02-15T19:19:53.270Z,9.55
2019-02-15T19:22:26.668Z,9.49
2019-02-15T19:25:00.048Z,9.49
2019-02-15T19:27:33.307Z,9.41
2019-02-15T19:30:08.276Z,9.36
2019-02-15T19:32:41.818Z,9.33
2019-02-15T19:35:17.479Z,9.33
2019-02-15T19:37:53.587Z,9.29
2019-02-15T19:40:26.931Z,9.31
2019-02-15T19:42:58.852Z,9.30
2019-02-15T19:45:31.933Z,9.22
2019-02-15T19:48:04.279Z,9.20
2019-02-15T19:50:37.751Z,9.20
2019-02-15T19:53:11.111Z,9.13
2019-02-15T19:55:44.714Z,9.04
2019-02-15T19:58:18.279Z,9.02
2019-02-15T20:00:52.110Z,8.98
2019-02-15T20:03:25.608Z,8.94
2019-02-15T20:05:59.277Z,8.95
2019-02-15T20:09:57.900Z,8.93
2019-02-15T20:12:29.877Z,8.83
2019-02-15T20:15:01.865Z,8.80
2019-02-15T20:17:59.254Z,8.78
2019-02-15T20:20:34.002Z,8.81
2019-02-15T20:23:07.277Z,8.80
2019-02-15T20:25:40.650Z,8.74
2019-02-15T20:28:14.586Z,8.74
2019-02-15T20:30:48.945Z,8.72
2019-02-15T20:33:20.856Z,8.60
2019-02-15T20:35:54.100Z,8.55
2019-02-15T20:38:27.569Z,8.52
2019-02-15T20:41:00.934Z,8.47
2019-02-15T20:43:32.858Z,8.47
2019-02-15T20:46:06.101Z,8.43
2019-02-15T20:48:40.536Z,8.42
2019-02-15T20:51:13.935Z,8.36
2019-02-15T20:53:45.857Z,8.29
2019-02-15T20:56:18.949Z,8.21
2019-02-15T20:58:52.273Z,8.12
2019-02-15T21:01:25.704Z,8.01
2019-02-15T21:03:59.240Z,8.01
2019-02-15T21:06:32.784Z,8.04
2019-02-15T21:09:06.555Z,8.04
2019-02-15T21:11:39.936Z,8.07
2019-02-15T21:14:13.277Z,8.00
2019-02-15T21:16:46.742Z,7.89
2019-02-15T21:19:19.939Z,7.89
2019-02-15T21:21:55.597Z,7.80
2019-02-15T21:24:30.275Z,7.75
2019-02-15T21:27:03.691Z,7.69
2019-02-15T21:29:37.289Z,7.69
2019-02-15T21:32:10.908Z,7.60
2019-02-15T21:34:43.295Z,7.60
2019-02-15T21:37:19.288Z,7.61
2019-02-15T21:39:52.725Z,7.61
2019-02-15T21:42:25.940Z,7.55
2019-02-15T21:44:57.995Z,7.50
2019-02-15T21:47:31.291Z,7.46
2019-02-15T21:50:04.733Z,7.36
2019-02-15T21:52:44.305Z,7.36
2019-02-15T21:55:12.700Z,7.34
2019-02-15T21:57:46.128Z,7.33
2019-02-15T22:00:22.290Z,7.29
2019-02-15T22:02:55.672Z,7.26
2019-02-15T22:05:28.945Z,7.26
2019-02-15T22:08:00.844Z,7.21
2019-02-15T22:10:33.943Z,7.16
2019-02-15T22:13:05.770Z,7.15
2019-02-15T22:15:38.943Z,7.13
2019-02-15T22:18:10.837Z,7.14
2019-02-15T22:20:44.086Z,7.12
2019-02-15T22:23:17.771Z,6.99
2019-02-15T22:25:51.094Z,6.99
2019-02-15T22:28:24.689Z,6.95
2019-02-15T22:30:57.953Z,6.94
2019-02-15T22:33:31.759Z,6.87
2019-02-15T22:36:05.278Z,6.81
2019-02-15T22:38:38.648Z,6.83
2019-02-15T22:41:16.282Z,6.83
2019-02-15T22:45:52.899Z,6.88
2019-02-15T22:48:26.262Z,6.87
2019-02-15T22:50:59.733Z,6.78
2019-02-15T22:53:32.950Z,6.78
2019-02-15T22:56:04.696Z,6.71
2019-02-15T22:58:38.072Z,6.66
2019-02-15T23:01:18.762Z,6.66
2019-02-15T23:03:52.287Z,6.64
2019-02-15T23:08:44.283Z,6.61
2019-02-15T23:11:19.872Z,6.47
2019-02-15T23:13:53.285Z,6.47
2019-02-15T23:16:27.320Z,6.35
2019-02-15T23:19:00.677Z,6.34
2019-02-15T23:21:33.942Z,6.28
2019-02-15T23:24:07.171Z,6.28
2019-02-15T23:26:39.064Z,6.28
2019-02-15T23:29:11.026Z,6.30
2019-02-15T23:31:44.137Z,6.26
2019-02-15T23:34:15.991Z,6.24
2019-02-15T23:36:47.874Z,6.24
2019-02-15T23:39:21.264Z,6.17
2019-02-15T23:41:54.637Z,6.06
2019-02-15T23:44:27.940Z,6.06
2019-02-15T23:47:01.283Z,6.04
2019-02-15T23:49:34.698Z,5.90
2019-02-15T23:52:07.954Z,5.90
2019-02-15T23:54:41.429Z,5.87
2019-02-15T23:57:14.757Z,5.87
2019-02-15T23:59:48.090Z,5.89
